Time;durP1;ratioP1;P1;durP2;ratioP2;P2;SDS_P1;SDS_P2;PMS_P1;PMS_P2;Temp;Humidity;BMP_temperature;BMP_pressure;BME280_temperature;BME280_humidity;BME280_pressure;Samples;Min_cycle;Max_cycle;Signal;HPM_P1;HPM_P2
2020/12/02 00:00:52;;;;;;;30.05;27.67;;;3.60;94.90;;;;;;4969190;28;20473;-77
2020/12/02 00:03:24;;;;;;;29.08;26.58;;;3.60;94.60;;;;;;4958269;28;20673;-76
2020/12/02 00:05:53;;;;;;;30.33;27.48;;;3.60;94.90;;;;;;4961040;28;20543;-77
2020/12/02 00:08:24;;;;;;;30.42;27.92;;;3.60;95.20;;;;;;4959126;28;20291;-76
2020/12/02 00:10:50;;;;;;;28.92;26.48;;;3.60;94.70;;;;;;4964870;28;20200;-76
2020/12/02 00:13:21;;;;;;;58.15;30.02;;;3.70;94.30;;;;;;4960978;28;20693;-76
2020/12/02 00:15:48;;;;;;;50.20;29.25;;;3.80;93.90;;;;;;4964765;28;20226;-77
2020/12/02 00:18:15;;;;;;;699.88;102.95;;;3.70;94.40;;;;;;4967284;28;20290;-76
2020/12/02 00:20:42;;;;;;;29.42;27.00;;;3.90;93.40;;;;;;4963546;28;20739;-77
2020/12/02 00:23:09;;;;;;;30.73;27.90;;;3.80;93.20;;;;;;4965360;28;20196;-76
2020/12/02 00:25:35;;;;;;;31.25;28.55;;;3.60;93.40;;;;;;4964343;28;20207;-77
2020/12/02 00:28:03;;;;;;;30.60;28.20;;;3.60;93.80;;;;;;4972824;28;20555;-77
2020/12/02 00:30:32;;;;;;;30.75;27.85;;;3.80;92.50;;;;;;4970358;28;20195;-76
2020/12/02 00:33:07;;;;;;;28.95;26.52;;;3.80;91.90;;;;;;4963677;28;20205;-76
2020/12/02 00:35:34;;;;;;;30.10;27.40;;;3.80;92.00;;;;;;4968281;28;20244;-76
2020/12/02 00:38:01;;;;;;;28.88;25.92;;;3.70;91.80;;;;;;4960187;28;20295;-76
2020/12/02 00:40:27;;;;;;;30.25;27.45;;;3.60;92.60;;;;;;4968026;28;20199;-76
2020/12/02 00:42:53;;;;;;;30.92;28.27;;;3.70;92.20;;;;;;4968435;28;20296;-76
2020/12/02 00:45:21;;;;;;;29.05;26.48;;;3.60;92.30;;;;;;4969459;28;20191;-76
2020/12/02 00:47:50;;;;;;;30.42;27.60;;;3.50;93.10;;;;;;4968258;28;20201;-76
2020/12/02 00:50:18;;;;;;;31.35;28.52;;;3.60;93.00;;;;;;4968090;28;20208;-76
2020/12/02 00:52:59;;;;;;;31.45;28.40;;;3.70;92.60;;;;;;4961253;28;20311;-76
2020/12/02 00:55:26;;;;;;;29.75;26.95;;;3.60;92.40;;;;;;4963100;28;20226;-76
2020/12/02 00:57:54;;;;;;;30.98;28.15;;;3.40;93.50;;;;;;4958972;28;20203;-76
2020/12/02 01:00:21;;;;;;;71.68;31.08;;;3.30;94.10;;;;;;4959380;28;20195;-76
2020/12/02 01:02:56;;;;;;;30.67;27.77;;;3.30;95.00;;;;;;4967928;28;20199;-76
2020/12/02 01:05:23;;;;;;;33.80;30.80;;;3.50;93.90;;;;;;4972684;28;20195;-75
2020/12/02 01:07:49;;;;;;;31.77;28.38;;;3.60;93.20;;;;;;4974772;28;20206;-76
2020/12/02 01:10:16;;;;;;;1313.15;174.10;;;3.50;93.60;;;;;;4972494;28;20203;-77
2020/12/02 01:12:46;;;;;;;30.10;27.20;;;3.50;94.90;;;;;;4975224;28;20205;-77
2020/12/02 01:15:18;;;;;;;30.65;27.73;;;3.40;94.40;;;;;;4972185;28;20318;-76
2020/12/02 01:17:44;;;;;;;32.92;29.55;;;3.40;94.50;;;;;;4976064;28;20235;-77
2020/12/02 01:20:12;;;;;;;31.30;28.35;;;3.20;94.30;;;;;;4969831;28;20199;-79
2020/12/02 01:22:41;;;;;;;32.45;29.02;;;3.10;95.40;;;;;;4966848;28;20204;-76
2020/12/02 01:25:13;;;;;;;31.83;28.95;;;3.10;95.30;;;;;;4975907;28;20207;-76
2020/12/02 01:27:45;;;;;;;33.13;29.83;;;3.30;94.70;;;;;;4975469;28;20207;-77
2020/12/02 01:30:15;;;;;;;31.10;28.40;;;3.40;93.90;;;;;;4973545;28;20225;-76
2020/12/02 01:32:43;;;;;;;31.35;28.25;;;3.30;93.90;;;;;;4961464;28;20201;-76
2020/12/02 01:35:12;;;;;;;31.95;29.15;;;3.20;94.10;;;;;;4968770;28;20223;-77
2020/12/02 01:37:41;;;;;;;34.00;29.92;;;3.20;94.20;;;;;;4969023;28;20221;-77
2020/12/02 01:40:14;;;;;;;32.75;29.45;;;3.20;94.60;;;;;;4968832;28;20219;-76
2020/12/02 01:42:44;;;;;;;34.75;31.40;;;3.40;94.00;;;;;;4974085;28;20779;-76
2020/12/02 01:45:18;;;;;;;30.80;27.88;;;3.40;93.70;;;;;;4972338;28;20192;-76
2020/12/02 01:47:58;;;;;;;33.00;29.58;;;3.40;93.80;;;;;;4972241;28;20688;-76
2020/12/02 01:50:34;;;;;;;33.13;29.95;;;3.30;93.70;;;;;;4973576;28;20274;-77
2020/12/02 01:53:07;;;;;;;33.35;30.08;;;3.40;93.40;;;;;;4971613;28;20658;-76
2020/12/02 01:55:41;;;;;;;31.98;29.02;;;3.40;93.30;;;;;;4964609;28;20213;-76
2020/12/02 01:58:23;;;;;;;31.90;28.77;;;3.30;93.30;;;;;;4971869;28;20199;-77
2020/12/02 02:00:58;;;;;;;31.52;28.40;;;3.20;94.00;;;;;;4967796;28;20287;-76
2020/12/02 02:03:26;;;;;;;30.70;27.67;;;3.30;94.40;;;;;;4970724;28;20237;-75
2020/12/02 02:05:57;;;;;;;33.10;29.60;;;3.30;94.00;;;;;;4968651;28;20295;-76
2020/12/02 02:08:26;;;;;;;32.05;28.65;;;3.30;93.90;;;;;;4966898;28;20838;-76
2020/12/02 02:10:53;;;;;;;32.08;29.23;;;3.20;93.80;;;;;;4964212;28;20253;-76
2020/12/02 02:13:56;;;;;;;32.30;29.27;;;3.00;94.60;;;;;;4957767;28;20207;-77
2020/12/02 02:16:26;;;;;;;32.75;29.38;;;3.00;95.30;;;;;;4964061;28;20229;-76
2020/12/02 02:18:53;;;;;;;29.98;26.88;;;3.10;94.90;;;;;;4954555;28;20307;-76
2020/12/02 02:21:22;;;;;;;29.42;26.45;;;3.20;94.30;;;;;;4966970;28;21024;-76
2020/12/02 02:23:48;;;;;;;32.17;29.17;;;3.20;94.20;;;;;;4970444;28;20229;-76
2020/12/02 02:26:36;;;;;;;31.23;28.40;;;3.20;94.30;;;;;;4972137;28;20219;-76
2020/12/02 02:29:09;;;;;;;33.10;30.10;;;3.20;94.50;;;;;;4966794;28;20630;-77
2020/12/02 02:31:45;;;;;;;33.28;30.08;;;3.30;94.30;;;;;;4962123;28;20195;-76
2020/12/02 02:34:13;;;;;;;29.70;26.63;;;3.40;93.70;;;;;;4963473;28;20222;-76
2020/12/02 02:36:40;;;;;;;31.90;29.13;;;3.40;93.80;;;;;;4971562;28;20255;-78
2020/12/02 02:39:09;;;;;;;30.65;27.90;;;3.40;93.30;;;;;;4972723;28;20204;-76
2020/12/02 02:41:36;;;;;;;30.60;27.70;;;3.40;92.70;;;;;;4970240;28;20214;-78
2020/12/02 02:44:04;;;;;;;32.67;29.48;;;3.30;93.20;;;;;;4969794;28;20675;-78
2020/12/02 02:46:31;;;;;;;30.23;27.30;;;3.30;93.00;;;;;;4965853;28;20224;-76
2020/12/02 02:48:57;;;;;;;31.67;28.60;;;3.40;94.00;;;;;;4970673;28;20227;-77
2020/12/02 02:51:24;;;;;;;31.55;28.35;;;3.40;93.10;;;;;;4966953;28;20206;-77
2020/12/02 02:53:50;;;;;;;30.63;27.67;;;3.30;94.00;;;;;;4968788;28;20677;-76
2020/12/02 02:56:16;;;;;;;31.30;28.13;;;3.40;94.10;;;;;;4966559;28;20563;-77
2020/12/02 02:58:44;;;;;;;382.35;69.38;;;3.40;94.10;;;;;;4964175;28;20203;-77
2020/12/02 03:01:11;;;;;;;32.35;29.17;;;3.30;94.00;;;;;;4972759;28;20214;-78
2020/12/02 03:03:39;;;;;;;30.60;27.70;;;3.50;94.00;;;;;;4964593;28;20595;-76
2020/12/02 03:06:08;;;;;;;447.83;73.35;;;3.40;93.80;;;;;;4961352;28;20208;-76
2020/12/02 03:08:35;;;;;;;40.28;30.30;;;3.40;93.90;;;;;;4958697;28;20206;-76
2020/12/02 03:11:06;;;;;;;31.20;28.35;;;3.30;94.50;;;;;;4964316;28;20204;-76
2020/12/02 03:13:37;;;;;;;30.90;28.35;;;3.20;94.90;;;;;;4972607;28;20281;-78
2020/12/02 03:16:11;;;;;;;87.82;34.17;;;3.30;95.20;;;;;;4966307;28;20211;-76
2020/12/02 03:18:37;;;;;;;30.08;27.45;;;3.40;94.50;;;;;;4972528;28;20560;-76
2020/12/02 03:21:07;;;;;;;31.75;28.85;;;3.40;94.20;;;;;;4964223;28;20200;-76
2020/12/02 03:23:34;;;;;;;33.03;29.95;;;3.50;93.70;;;;;;4969607;28;20195;-77
2020/12/02 03:26:01;;;;;;;33.13;30.02;;;3.40;94.20;;;;;;4964991;28;20224;-76
2020/12/02 03:28:28;;;;;;;32.25;29.00;;;3.40;94.50;;;;;;4965246;28;20708;-78
2020/12/02 03:30:57;;;;;;;31.63;28.75;;;3.40;94.00;;;;;;4970706;28;20282;-76
2020/12/02 03:33:25;;;;;;;30.02;27.30;;;3.40;94.30;;;;;;4962954;28;20192;-76
2020/12/02 03:35:52;;;;;;;33.20;30.00;;;3.50;94.10;;;;;;4964378;28;20219;-79
2020/12/02 03:38:19;;;;;;;30.25;27.55;;;3.50;93.90;;;;;;4969069;28;20229;-76
2020/12/02 03:40:45;;;;;;;31.15;28.15;;;3.60;93.30;;;;;;4971299;28;20313;-76
2020/12/02 03:43:12;;;;;;;305.58;56.45;;;3.50;93.70;;;;;;4962055;28;20213;-76
2020/12/02 03:45:42;;;;;;;32.03;28.92;;;3.50;94.10;;;;;;4967617;28;20216;-76
2020/12/02 03:48:10;;;;;;;29.88;27.00;;;3.50;93.90;;;;;;4961167;28;20207;-75
2020/12/02 03:50:38;;;;;;;32.20;29.15;;;3.40;93.80;;;;;;4960442;28;20203;-76
2020/12/02 03:53:05;;;;;;;32.75;28.88;;;3.40;93.80;;;;;;4967689;28;20276;-76
2020/12/02 03:55:32;;;;;;;31.83;28.90;;;3.20;94.60;;;;;;4965202;28;20223;-75
2020/12/02 03:57:59;;;;;;;31.10;28.30;;;3.30;94.60;;;;;;4964160;28;20210;-76
2020/12/02 04:00:25;;;;;;;30.38;27.55;;;3.30;93.90;;;;;;4970745;28;20222;-76
2020/12/02 04:02:51;;;;;;;33.53;30.10;;;3.40;94.30;;;;;;4970301;28;20200;-75
2020/12/02 04:05:18;;;;;;;33.72;30.42;;;3.40;94.10;;;;;;4966661;28;20199;-76
2020/12/02 04:07:45;;;;;;;31.85;28.95;;;3.30;94.00;;;;;;4965646;28;20195;-75
2020/12/02 04:10:12;;;;;;;31.15;28.25;;;3.20;94.60;;;;;;4969956;28;20199;-76
2020/12/02 04:12:38;;;;;;;31.73;28.75;;;3.30;94.80;;;;;;4961388;28;20287;-76
2020/12/02 04:15:05;;;;;;;32.97;29.80;;;3.40;94.00;;;;;;4954328;28;20215;-76
2020/12/02 04:17:32;;;;;;;33.78;30.40;;;3.40;93.50;;;;;;4964897;28;20219;-76
2020/12/02 04:19:59;;;;;;;32.03;28.92;;;3.50;93.80;;;;;;4968843;28;20199;-76
2020/12/02 04:22:25;;;;;;;31.92;29.02;;;3.50;94.10;;;;;;4960434;28;20578;-76
2020/12/02 04:24:52;;;;;;;50.20;31.92;;;3.50;93.80;;;;;;4962328;28;20191;-76
2020/12/02 04:27:19;;;;;;;136.07;40.13;;;3.40;94.00;;;;;;4971636;28;20223;-76
2020/12/02 04:29:45;;;;;;;32.10;29.35;;;3.40;94.80;;;;;;4969562;28;20245;-75
2020/12/02 04:32:12;;;;;;;31.88;28.80;;;3.40;94.20;;;;;;4965511;28;20199;-76
2020/12/02 04:34:38;;;;;;;32.60;29.45;;;3.30;94.70;;;;;;4959628;28;20216;-75
2020/12/02 04:37:05;;;;;;;33.88;30.80;;;3.40;94.40;;;;;;4968569;28;20584;-76
2020/12/02 04:39:31;;;;;;;34.88;31.60;;;3.50;93.70;;;;;;4955281;28;20207;-76
2020/12/02 04:41:59;;;;;;;32.05;29.10;;;3.50;93.50;;;;;;4969034;28;20225;-75
2020/12/02 04:44:26;;;;;;;32.17;29.27;;;3.50;92.70;;;;;;4965123;28;20200;-75
2020/12/02 04:46:54;;;;;;;533.35;85.32;;;3.50;92.90;;;;;;4968680;28;20676;-75
2020/12/02 04:49:23;;;;;;;34.22;30.95;;;3.50;93.10;;;;;;4971405;28;20199;-76
2020/12/02 04:51:54;;;;;;;32.25;29.15;;;3.40;93.60;;;;;;4970364;28;20696;-75
2020/12/02 04:54:20;;;;;;;31.52;28.35;;;3.40;94.00;;;;;;4959993;28;20228;-76
2020/12/02 04:56:49;;;;;;;33.03;30.08;;;3.40;93.80;;;;;;4968291;28;20262;-76
2020/12/02 04:59:16;;;;;;;33.08;30.08;;;3.50;93.20;;;;;;4965960;28;20608;-76
2020/12/02 05:01:50;;;;;;;32.83;29.83;;;3.40;93.40;;;;;;4968885;28;20512;-76
2020/12/02 05:04:24;;;;;;;31.98;29.00;;;3.40;94.50;;;;;;4964666;28;20195;-75
2020/12/02 05:07:06;;;;;;;32.50;29.45;;;3.40;93.60;;;;;;4957458;28;20562;-75
2020/12/02 05:09:34;;;;;;;30.42;27.73;;;3.40;93.60;;;;;;4968386;28;20214;-76
2020/12/02 05:12:02;;;;;;;32.00;29.33;;;3.30;93.60;;;;;;4968767;28;20203;-75
2020/12/02 05:14:37;;;;;;;30.63;27.88;;;3.30;94.00;;;;;;4962668;28;20219;-76
2020/12/02 05:17:21;;;;;;;30.23;27.70;;;3.20;94.00;;;;;;4968349;28;20657;-78
2020/12/02 05:20:05;;;;;;;31.65;28.85;;;3.10;94.30;;;;;;4969390;28;20569;-78
2020/12/02 05:22:35;;;;;;;31.13;28.20;;;3.20;93.30;;;;;;4964976;28;20568;-76
2020/12/02 05:25:01;;;;;;;30.27;27.75;;;3.10;94.10;;;;;;4959872;28;20206;-76
2020/12/02 05:27:31;;;;;;;29.33;26.88;;;3.00;94.10;;;;;;4962785;28;20224;-76
2020/12/02 05:30:17;;;;;;;30.70;28.20;;;3.10;93.80;;;;;;4968463;28;20226;-77
2020/12/02 05:33:01;;;;;;;31.17;28.52;;;3.10;93.70;;;;;;4965677;28;20203;-76
2020/12/02 05:35:29;;;;;;;29.83;27.23;;;3.20;93.70;;;;;;4964988;28;20711;-80
2020/12/02 05:37:56;;;;;;;30.92;28.33;;;3.30;93.20;;;;;;4964369;28;20236;-75
2020/12/02 05:40:23;;;;;;;34.63;31.48;;;3.40;93.20;;;;;;4966104;28;20195;-75
2020/12/02 05:42:59;;;;;;;31.45;28.85;;;3.30;92.90;;;;;;4961791;28;20196;-75
2020/12/02 05:45:34;;;;;;;31.60;29.00;;;3.40;93.10;;;;;;4964341;28;20399;-75
2020/12/02 05:48:05;;;;;;;29.90;27.42;;;3.30;93.10;;;;;;4957342;28;20583;-75
2020/12/02 05:50:31;;;;;;;31.65;28.88;;;3.30;93.40;;;;;;4956252;28;20212;-75
2020/12/02 05:53:03;;;;;;;31.73;29.23;;;3.30;93.10;;;;;;4973102;28;20199;-75
2020/12/02 05:55:32;;;;;;;30.40;28.00;;;3.50;92.50;;;;;;4971954;28;20463;-75
2020/12/02 05:58:00;;;;;;;29.95;27.45;;;3.50;92.50;;;;;;4971291;28;20335;-75
2020/12/02 06:00:30;;;;;;;29.80;27.30;;;3.50;92.10;;;;;;4967639;28;20199;-75
2020/12/02 06:02:57;;;;;;;31.20;28.60;;;3.40;91.70;;;;;;4973996;28;20204;-75
2020/12/02 06:05:25;;;;;;;29.95;27.40;;;3.30;92.50;;;;;;4964965;28;20219;-77
2020/12/02 06:07:54;;;;;;;30.95;28.40;;;3.40;92.20;;;;;;4963290;28;20673;-75
2020/12/02 06:10:30;;;;;;;31.00;28.50;;;3.30;92.00;;;;;;4970411;28;20676;-75
2020/12/02 06:12:56;;;;;;;31.65;29.25;;;3.30;92.10;;;;;;4964193;28;20468;-75
2020/12/02 06:15:25;;;;;;;30.10;27.90;;;3.30;92.30;;;;;;4974103;28;20212;-74
2020/12/02 06:18:14;;;;;;;31.33;28.48;;;3.30;92.20;;;;;;4973828;28;20203;-75
2020/12/02 06:20:44;;;;;;;31.00;28.35;;;3.30;92.60;;;;;;4969934;28;20199;-75
2020/12/02 06:23:11;;;;;;;32.95;30.25;;;3.40;92.10;;;;;;4968863;28;20204;-76
2020/12/02 06:25:46;;;;;;;30.27;27.77;;;3.40;92.00;;;;;;4965866;28;20584;-75
2020/12/02 06:28:13;;;;;;;30.00;27.20;;;3.50;91.90;;;;;;4971053;28;20211;-75
2020/12/02 06:30:41;;;;;;;31.25;28.33;;;3.60;92.50;;;;;;4968065;28;20654;-75
2020/12/02 06:33:16;;;;;;;216.52;42.53;;;3.50;92.40;;;;;;4973874;28;20203;-77
2020/12/02 06:35:43;;;;;;;31.15;28.15;;;3.50;92.70;;;;;;4968047;28;20703;-75
2020/12/02 06:38:15;;;;;;;31.45;28.65;;;3.60;92.80;;;;;;4969674;28;20291;-75
2020/12/02 06:41:04;;;;;;;33.70;30.77;;;3.70;91.90;;;;;;4971996;28;20207;-75
2020/12/02 06:43:33;;;;;;;58.67;30.67;;;3.70;91.80;;;;;;4968471;28;20239;-78
2020/12/02 06:46:01;;;;;;;32.85;29.58;;;3.70;91.20;;;;;;4971167;28;20211;-78
2020/12/02 06:48:34;;;;;;;36.63;33.42;;;3.60;91.90;;;;;;4966267;28;20193;-79
2020/12/02 06:51:01;;;;;;;38.83;35.42;;;3.70;91.10;;;;;;4963240;28;20665;-75
2020/12/02 06:53:28;;;;;;;34.15;31.20;;;3.80;91.20;;;;;;4968228;28;20208;-75
2020/12/02 06:55:58;;;;;;;30.65;28.05;;;3.80;91.30;;;;;;4969859;28;20310;-75
2020/12/02 06:58:25;;;;;;;31.60;29.00;;;3.80;90.90;;;;;;4963885;28;20498;-74
2020/12/02 07:00:55;;;;;;;44.70;32.33;;;3.80;90.80;;;;;;4971256;28;20475;-76
2020/12/02 07:03:27;;;;;;;908.73;122.73;;;3.90;90.50;;;;;;4962849;28;20496;-75
2020/12/02 07:06:09;;;;;;;31.65;28.85;;;4.00;90.70;;;;;;4973278;28;20474;-75
2020/12/02 07:08:37;;;;;;;32.72;29.83;;;4.00;90.90;;;;;;4969748;28;20207;-77
2020/12/02 07:11:08;;;;;;;35.92;32.72;;;3.90;90.70;;;;;;4964126;28;20303;-77
2020/12/02 07:13:38;;;;;;;32.67;29.80;;;3.90;90.60;;;;;;4960394;28;20214;-77
2020/12/02 07:16:15;;;;;;;33.00;30.00;;;4.00;89.40;;;;;;4964907;28;20230;-76
2020/12/02 07:18:46;;;;;;;34.67;31.92;;;3.90;88.90;;;;;;4970564;28;20202;-76
2020/12/02 07:21:25;;;;;;;32.55;29.77;;;3.80;89.00;;;;;;4962915;28;20318;-75
2020/12/02 07:23:53;;;;;;;33.03;30.05;;;3.80;89.40;;;;;;4967485;28;20197;-79
2020/12/02 07:26:20;;;;;;;35.58;32.40;;;3.90;89.10;;;;;;4963156;28;20605;-76
2020/12/02 07:28:55;;;;;;;34.40;31.40;;;3.90;88.30;;;;;;4965762;28;20517;-77
2020/12/02 07:31:24;;;;;;;31.95;28.95;;;3.90;88.40;;;;;;4971100;28;20201;-77
2020/12/02 07:34:02;;;;;;;34.92;31.88;;;3.90;88.20;;;;;;4969314;28;20278;-77
2020/12/02 07:36:31;;;;;;;31.45;28.55;;;3.90;88.00;;;;;;4971450;28;20589;-77
2020/12/02 07:39:04;;;;;;;32.40;29.40;;;4.00;87.90;;;;;;4968280;28;20203;-77
2020/12/02 07:41:31;;;;;;;31.10;28.30;;;3.90;87.80;;;;;;4970093;28;20239;-77
2020/12/02 07:43:59;;;;;;;32.85;30.00;;;3.90;88.20;;;;;;4971622;28;20207;-76
2020/12/02 07:46:26;;;;;;;31.00;28.33;;;3.80;89.10;;;;;;4966039;28;20328;-75
2020/12/02 07:48:56;;;;;;;33.08;30.17;;;3.90;88.80;;;;;;4970553;28;20294;-75
2020/12/02 07:51:26;;;;;;;38.78;35.08;;;4.00;88.60;;;;;;4968608;28;20199;-76
2020/12/02 07:53:57;;;;;;;41.30;36.97;;;4.10;88.20;;;;;;4967980;28;20214;-74
2020/12/02 07:56:28;;;;;;;34.30;31.20;;;4.20;87.50;;;;;;4970960;28;20207;-76
2020/12/02 07:58:56;;;;;;;32.78;29.92;;;4.10;87.80;;;;;;4971999;28;20235;-75
2020/12/02 08:01:42;;;;;;;32.42;29.75;;;4.00;87.40;;;;;;4971060;28;20286;-75
2020/12/02 08:04:34;;;;;;;30.45;27.95;;;4.10;87.50;;;;;;4960465;28;20199;-75
2020/12/02 08:07:03;;;;;;;33.97;30.70;;;4.10;87.40;;;;;;4959741;28;20224;-76
2020/12/02 08:09:35;;;;;;;32.28;29.48;;;4.10;87.60;;;;;;4969531;28;20677;-76
2020/12/02 08:12:04;;;;;;;35.40;32.08;;;4.10;87.60;;;;;;4969746;28;20686;-76
2020/12/02 08:14:33;;;;;;;33.00;30.10;;;4.10;87.50;;;;;;4971535;28;20223;-76
2020/12/02 08:17:07;;;;;;;73.00;33.13;;;4.30;86.90;;;;;;4970591;28;20244;-78
2020/12/02 08:19:36;;;;;;;36.80;33.55;;;4.30;86.50;;;;;;4964345;28;20202;-76
2020/12/02 08:22:03;;;;;;;32.63;29.58;;;4.30;87.80;;;;;;4965769;28;20207;-75
2020/12/02 08:24:51;;;;;;;32.40;29.30;;;4.30;88.00;;;;;;4964609;28;20226;-76
2020/12/02 08:27:18;;;;;;;32.47;29.50;;;4.40;88.30;;;;;;4961167;28;20226;-75
2020/12/02 08:29:48;;;;;;;34.00;30.85;;;4.40;87.50;;;;;;4966048;28;20203;-75
2020/12/02 08:32:23;;;;;;;30.77;28.08;;;4.50;86.70;;;;;;4964792;28;20227;-75
2020/12/02 08:34:49;;;;;;;33.15;30.13;;;4.50;86.40;;;;;;4957949;28;20223;-75
2020/12/02 08:37:23;;;;;;;32.08;29.27;;;4.40;85.90;;;;;;4965791;28;20617;-75
2020/12/02 08:39:53;;;;;;;72.10;32.72;;;4.40;85.90;;;;;;4968542;28;20203;-75
2020/12/02 08:42:28;;;;;;;31.67;28.65;;;4.40;87.30;;;;;;4970852;28;20191;-74
2020/12/02 08:45:13;;;;;;;32.72;29.70;;;4.20;86.50;;;;;;4961369;28;20200;-76
2020/12/02 08:47:41;;;;;;;31.20;28.30;;;4.10;86.80;;;;;;4960883;28;20227;-75
2020/12/02 08:50:16;;;;;;;31.65;28.85;;;4.20;88.20;;;;;;4967752;28;20200;-74
2020/12/02 08:52:50;;;;;;;33.95;30.75;;;4.20;87.70;;;;;;4963043;28;20207;-75
2020/12/02 08:55:17;;;;;;;32.30;29.27;;;4.40;86.40;;;;;;4962373;28;20222;-78
2020/12/02 08:57:44;;;;;;;31.17;28.63;;;4.50;85.40;;;;;;4962021;28;20653;-78
2020/12/02 09:00:13;;;;;;;35.30;32.20;;;4.40;85.30;;;;;;4967429;28;20503;-77
2020/12/02 09:02:39;;;;;;;32.75;30.05;;;4.40;85.00;;;;;;4967294;28;20214;-75
2020/12/02 09:05:05;;;;;;;32.05;29.15;;;4.20;85.30;;;;;;4967759;28;20203;-74
2020/12/02 09:07:32;;;;;;;41.60;37.50;;;4.30;85.20;;;;;;4962394;28;20702;-75
2020/12/02 09:09:58;;;;;;;36.55;33.35;;;4.40;85.10;;;;;;4963914;28;20195;-75
2020/12/02 09:12:25;;;;;;;32.40;29.70;;;4.40;84.00;;;;;;4969657;28;20199;-74
2020/12/02 09:14:52;;;;;;;32.03;29.13;;;4.40;85.00;;;;;;4966282;28;20697;-74
2020/12/02 09:17:18;;;;;;;31.65;29.08;;;4.40;86.20;;;;;;4964375;28;20611;-75
2020/12/02 09:19:44;;;;;;;33.33;30.48;;;4.60;83.90;;;;;;4968033;28;20576;-75
2020/12/02 09:22:11;;;;;;;33.13;30.20;;;4.50;83.00;;;;;;4970399;28;20210;-75
2020/12/02 09:24:37;;;;;;;32.60;30.02;;;4.60;82.80;;;;;;4966194;28;20198;-76
2020/12/02 09:27:03;;;;;;;34.28;31.40;;;4.60;82.30;;;;;;4958573;28;20219;-76
2020/12/02 09:29:31;;;;;;;31.48;28.88;;;4.50;82.00;;;;;;4966865;28;20203;-75
2020/12/02 09:31:57;;;;;;;32.35;29.77;;;4.50;82.40;;;;;;4968857;28;20646;-76
2020/12/02 09:34:23;;;;;;;30.25;27.85;;;4.50;81.70;;;;;;4961787;28;20203;-75
2020/12/02 09:36:50;;;;;;;31.02;28.45;;;4.40;82.70;;;;;;4972579;28;20216;-75
2020/12/02 09:39:16;;;;;;;29.58;27.33;;;4.40;84.30;;;;;;4960701;28;20200;-75
2020/12/02 09:41:59;;;;;;;31.08;28.55;;;4.30;85.20;;;;;;4963368;28;20204;-75
2020/12/02 09:44:34;;;;;;;29.60;27.00;;;4.30;85.30;;;;;;4968443;28;20226;-75
2020/12/02 09:47:04;;;;;;;29.73;27.33;;;4.40;86.70;;;;;;4963711;28;20219;-75
2020/12/02 09:49:32;;;;;;;28.23;25.92;;;4.30;84.40;;;;;;4971833;28;20638;-76
2020/12/02 09:52:37;;;;;;;364.90;53.63;;;4.40;83.30;;;;;;4960760;28;20203;-76
2020/12/02 09:55:10;;;;;;;29.08;26.63;;;4.40;85.40;;;;;;4969972;28;20245;-75
2020/12/02 09:57:36;;;;;;;27.83;25.63;;;4.30;85.50;;;;;;4961934;28;20207;-75
2020/12/02 10:00:06;;;;;;;30.30;27.80;;;4.40;85.30;;;;;;4961315;28;20650;-75
2020/12/02 10:03:03;;;;;;;31.48;28.77;;;4.50;84.50;;;;;;4961712;28;20215;-75
2020/12/02 10:05:58;;;;;;;27.45;25.35;;;4.50;83.40;;;;;;4964450;28;20199;-75
2020/12/02 10:08:38;;;;;;;29.55;27.35;;;4.50;83.70;;;;;;4967516;28;20210;-74
2020/12/02 10:11:11;;;;;;;29.67;27.48;;;4.40;82.30;;;;;;4965660;28;20222;-75
2020/12/02 10:14:21;;;;;;;30.27;27.88;;;4.30;82.20;;;;;;4960602;28;20192;-75
2020/12/02 10:17:02;;;;;;;30.27;27.98;;;4.40;82.20;;;;;;4908695;29;20714;-75
2020/12/02 10:20:04;;;;;;;29.80;27.48;;;4.30;81.30;;;;;;4959055;28;20379;-75
2020/12/02 10:22:48;;;;;;;30.25;27.88;;;4.30;81.70;;;;;;4967018;28;20215;-75
2020/12/02 10:25:43;;;;;;;31.67;28.98;;;4.50;81.30;;;;;;4970732;28;20195;-75
2020/12/02 10:28:20;;;;;;;29.45;26.85;;;4.60;81.00;;;;;;4963640;28;20220;-75
2020/12/02 10:30:57;;;;;;;31.08;28.25;;;4.60;80.80;;;;;;4965323;28;20199;-75
2020/12/02 10:33:39;;;;;;;32.03;29.30;;;4.50;81.00;;;;;;4967924;28;20209;-75
2020/12/02 10:36:06;;;;;;;31.40;29.00;;;4.40;81.70;;;;;;4956895;28;20584;-75
2020/12/02 10:38:38;;;;;;;33.80;31.20;;;4.40;80.80;;;;;;4964436;28;20200;-74
2020/12/02 10:41:17;;;;;;;32.50;29.55;;;4.20;81.50;;;;;;4971548;28;20204;-75
2020/12/02 10:43:58;;;;;;;32.45;29.75;;;4.30;82.30;;;;;;4962200;28;20199;-75
2020/12/02 10:46:38;;;;;;;35.25;32.00;;;4.40;82.20;;;;;;4966988;28;20256;-74
2020/12/02 10:49:18;;;;;;;36.63;33.10;;;4.40;81.50;;;;;;4971803;28;20287;-74
2020/12/02 10:51:50;;;;;;;37.35;34.05;;;4.40;81.80;;;;;;4967410;28;20201;-75
2020/12/02 10:54:17;;;;;;;37.30;33.75;;;4.50;81.70;;;;;;4967966;28;20215;-75
2020/12/02 10:56:45;;;;;;;39.08;35.17;;;4.40;80.80;;;;;;4967100;28;20222;-75
2020/12/02 10:59:14;;;;;;;38.65;34.88;;;4.40;80.90;;;;;;4959822;28;20298;-74
2020/12/02 11:01:42;;;;;;;37.38;33.80;;;4.50;81.00;;;;;;4961379;28;20202;-74
2020/12/02 11:04:14;;;;;;;38.10;34.70;;;4.50;81.10;;;;;;4971607;28;20290;-75
2020/12/02 11:06:53;;;;;;;37.13;33.75;;;4.50;81.40;;;;;;4965890;28;20215;-75
2020/12/02 11:09:46;;;;;;;37.55;34.05;;;4.40;81.30;;;;;;4964648;28;20200;-75
2020/12/02 11:12:34;;;;;;;38.92;35.03;;;4.40;81.70;;;;;;4953605;28;20205;-76
2020/12/02 11:15:15;;;;;;;37.72;34.30;;;4.40;81.10;;;;;;4968497;28;20213;-75
2020/12/02 11:17:57;;;;;;;37.80;34.10;;;4.20;82.10;;;;;;4968050;28;20304;-76
2020/12/02 11:20:32;;;;;;;41.58;35.45;;;4.40;82.30;;;;;;4970652;28;20195;-75
2020/12/02 11:23:06;;;;;;;35.90;32.40;;;4.20;82.20;;;;;;4968919;28;20205;-76
2020/12/02 11:25:43;;;;;;;35.75;32.42;;;4.00;85.80;;;;;;4954837;28;20215;-75
2020/12/02 11:28:11;;;;;;;37.85;34.17;;;4.10;84.10;;;;;;4966355;28;20235;-75
2020/12/02 11:30:41;;;;;;;36.63;33.33;;;4.10;83.00;;;;;;4971387;28;20200;-75
2020/12/02 11:33:32;;;;;;;37.20;33.78;;;4.20;82.80;;;;;;4958971;28;20251;-74
2020/12/02 11:36:43;;;;;;;34.50;31.70;;;4.10;82.00;;;;;;4961050;28;20777;-74
2020/12/02 11:39:29;;;;;;;34.67;31.50;;;4.10;82.00;;;;;;4970015;28;20666;-74
2020/12/02 11:42:02;;;;;;;34.55;31.45;;;4.30;80.40;;;;;;4970371;28;20199;-74
2020/12/02 11:44:36;;;;;;;36.10;32.85;;;4.20;80.10;;;;;;4969469;28;20693;-74
2020/12/02 11:47:12;;;;;;;37.22;33.72;;;4.10;81.80;;;;;;4970417;28;20615;-75
2020/12/02 11:49:51;;;;;;;36.92;33.00;;;4.10;81.70;;;;;;4965894;28;20310;-72
2020/12/02 11:52:26;;;;;;;36.78;33.38;;;4.40;81.90;;;;;;4959486;28;20567;-75
2020/12/02 11:54:54;;;;;;;38.75;35.15;;;4.20;81.10;;;;;;4960692;28;20541;-74
2020/12/02 11:57:22;;;;;;;37.75;34.13;;;4.50;81.20;;;;;;4963755;28;20246;-76
2020/12/02 11:59:48;;;;;;;37.47;33.97;;;4.50;80.50;;;;;;4967171;28;20697;-74
2020/12/02 12:02:36;;;;;;;38.30;34.70;;;4.30;81.60;;;;;;4965902;28;20647;-76
2020/12/02 12:05:08;;;;;;;37.50;33.80;;;4.20;82.90;;;;;;4967080;28;20196;-75
2020/12/02 12:07:42;;;;;;;37.78;34.08;;;4.00;84.10;;;;;;4962518;28;20227;-74
2020/12/02 12:10:19;;;;;;;40.58;36.30;;;4.10;83.40;;;;;;4962025;28;20289;-75
2020/12/02 12:12:54;;;;;;;35.97;32.45;;;4.00;83.20;;;;;;4959985;28;20200;-74
2020/12/02 12:15:30;;;;;;;830.83;123.82;;;4.00;82.60;;;;;;4963737;28;20227;-75
2020/12/02 12:18:01;;;;;;;36.53;32.92;;;4.10;84.70;;;;;;4963706;28;20203;-75
2020/12/02 12:20:33;;;;;;;35.72;32.25;;;4.00;84.50;;;;;;4962421;28;20486;-75
2020/12/02 12:23:06;;;;;;;36.00;32.63;;;3.90;82.40;;;;;;4966274;28;20246;-76
2020/12/02 12:25:35;;;;;;;35.60;32.22;;;3.70;82.70;;;;;;4963516;28;20690;-76
2020/12/02 12:28:05;;;;;;;35.83;32.53;;;3.70;82.80;;;;;;4958795;28;20359;-77
2020/12/02 12:30:34;;;;;;;38.63;34.50;;;3.70;83.40;;;;;;4966464;28;20653;-76
2020/12/02 12:33:07;;;;;;;39.00;35.03;;;3.70;83.40;;;;;;4960138;28;20573;-76
2020/12/02 12:35:39;;;;;;;36.28;32.55;;;3.80;83.20;;;;;;4961646;28;20230;-77
2020/12/02 12:38:21;;;;;;;38.60;34.55;;;3.70;84.90;;;;;;4965475;28;20657;-77
2020/12/02 12:40:49;;;;;;;439.67;79.47;;;3.70;85.20;;;;;;4958680;28;20203;-76
2020/12/02 12:43:22;;;;;;;41.95;37.17;;;3.70;87.50;;;;;;4958104;28;20200;-78
2020/12/02 12:45:55;;;;;;;36.78;33.05;;;4.00;85.20;;;;;;4969144;28;20751;-75
2020/12/02 12:48:23;;;;;;;37.47;33.55;;;4.00;82.90;;;;;;4966578;28;20199;-76
2020/12/02 12:50:52;;;;;;;37.35;33.63;;;3.80;83.30;;;;;;4964404;28;20205;-77
2020/12/02 12:53:21;;;;;;;37.05;33.65;;;3.90;84.30;;;;;;4967548;28;20657;-76
2020/12/02 12:55:48;;;;;;;36.85;33.35;;;3.60;82.40;;;;;;4968814;28;20748;-77
2020/12/02 12:58:17;;;;;;;36.75;32.97;;;3.50;83.90;;;;;;4971289;28;20268;-77